^^
Grace C. Lehan Memorial Weather Station Historical Data
Daily Summary for October 17, 2021 Units:  Metric    English   Both
Daily Weekly Monthly Yearly
  High: Low: Average:
Temperature: 18.5 °C 10.1 °C 13.6 °C
Dew Point: 13.6 °C 7.6 °C 10.5 °C
Humidity: 95% 58.3% 83%
Wind Speed: 9.7km/h 0km/h 1.3km/h
Wind Gust: 27.4km/h - -
Wind- - WNW
Pressure: 1007.7 hPa 1003.6 hPa -
Precipitation: 0 mm    
 
 
Tabular Data for October 17, 2021
Time Temperature Dew Point Pressure Wind Wind Speed Wind Gust Humidity Rainfall Rate (Hourly) solar
00:00 14.6 °C 13.6 °C 1004.3 hPa Calm     94% 5.08 mm 0 W/m2
00:09 14.4 °C 13.5 °C 1003.9 hPa Calm     94% 5.08 mm 0 W/m2
00:14 14.4 °C 13.5 °C 1004.6 hPa Calm     94% 5.08 mm 0 W/m2
00:19 14.4 °C 13.5 °C 1004.6 hPa Calm     94% 5.33 mm 0 W/m2
00:24 14.4 °C 13.4 °C 1004.3 hPa Calm     94% 5.33 mm 0 W/m2
00:29 14.4 °C 13.4 °C 1004.6 hPa Calm     94% 5.33 mm 0 W/m2
00:34 14.4 °C 13.4 °C 1004.3 hPa Calm     94% 5.33 mm 0 W/m2
00:39 14.4 °C 13.5 °C 1004.3 hPa Calm     94% 1.02 mm 0 W/m2
00:44 14.4 °C 13.5 °C 1004.6 hPa Calm     94% 1.27 mm 0 W/m2
00:49 14.4 °C 13.5 °C 1003.9 hPa Calm     94% 1.27 mm 0 W/m2
00:54 14.4 °C 13.5 °C 1003.9 hPa Calm     94% 1.27 mm 0 W/m2
00:59 14.4 °C 13.4 °C 1003.9 hPa Calm     94% 1.27 mm 0 W/m2
01:04 14.3 °C 13.4 °C 1003.9 hPa Calm     94% 1.27 mm 0 W/m2
01:09 14.3 °C 13.3 °C 1004.3 hPa Calm     94% 0.76 mm 0 W/m2
01:14 14.3 °C 13.4 °C 1004.3 hPa Calm     94.5% 0.76 mm 0 W/m2
01:19 14.2 °C 13.4 °C 1003.6 hPa Calm     95% 0.76 mm 0 W/m2
01:24 14.2 °C 13.4 °C 1003.6 hPa Calm   1.6 km/h 95% 0.76 mm 0 W/m2
01:29 14.2 °C 13.3 °C 1003.6 hPa NNW 0.5 km/h 8 km/h 94.7% 0.76 mm 0 W/m2
01:34 14.1 °C 13.1 °C 1003.6 hPa NW 1.9 km/h 8 km/h 94% 0.76 mm 0 W/m2
01:39 13.9 °C 13 °C 1003.9 hPa WNW 1.4 km/h 14.5 km/h 94% 0.76 mm 0 W/m2
01:44 13.8 °C 12.9 °C 1004.6 hPa West 0.3 km/h 14.5 km/h 94% 0.76 mm 0 W/m2
01:49 13.8 °C 12.9 °C 1004.6 hPa Calm   14.5 km/h 94.2% 0.76 mm 0 W/m2
01:54 13.8 °C 12.8 °C 1004.6 hPa Calm   14.5 km/h 94.1% 0.76 mm 0 W/m2
01:59 13.7 °C 12.8 °C 1005 hPa Calm   14.5 km/h 94% 0.76 mm 0 W/m2
02:04 13.7 °C 12.8 °C 1005 hPa Calm   14.5 km/h 94% 0.76 mm 0 W/m2
02:09 13.7 °C 12.8 °C 1005 hPa Calm     94.5% 0.25 mm 0 W/m2
02:14 13.6 °C 12.7 °C 1004.6 hPa Calm     94.5% 0.25 mm 0 W/m2
02:19 13.5 °C 12.7 °C 1004.6 hPa Calm     94.4% 0.25 mm 0 W/m2
02:24 13.4 °C 12.5 °C 1004.6 hPa West 0.5 km/h 6.4 km/h 94% 0.25 mm 0 W/m2
02:29 13.3 °C 12.3 °C 1004.6 hPa Calm   6.4 km/h 94% 0.25 mm 0 W/m2
02:34 13.2 °C 12.2 °C 1004.6 hPa West 1.1 km/h 6.4 km/h 94% 0.25 mm 0 W/m2
02:39 13.1 °C 12.1 °C 1004.6 hPa Calm   6.4 km/h 94% 0 mm 0 W/m2
02:44 12.9 °C 12 °C 1004.6 hPa WNW 0.3 km/h 6.4 km/h 94% 0 mm 0 W/m2
02:49 12.8 °C 11.9 °C 1004.3 hPa Calm   6.4 km/h 94% 0 mm 0 W/m2
02:54 12.7 °C 11.8 °C 1004.3 hPa WNW 0.5 km/h 6.4 km/h 94% 0 mm 0 W/m2
02:59 12.6 °C 11.7 °C 1003.9 hPa WNW 0.3 km/h 6.4 km/h 94% 0 mm 0 W/m2
03:04 12.5 °C 11.6 °C 1003.9 hPa WNW 0.2 km/h 6.4 km/h 94% 0 mm 0 W/m2
03:09 12.4 °C 11.5 °C 1003.9 hPa WNW 0.2 km/h 3.2 km/h 94% 0 mm 0 W/m2
03:14 12.3 °C 11.4 °C 1003.9 hPa WNW 0.3 km/h 6.4 km/h 94% 0 mm 0 W/m2
03:19 12.3 °C 11.3 °C 1003.9 hPa Calm   6.4 km/h 94% 0 mm 0 W/m2
03:24 12.2 °C 11.3 °C 1003.9 hPa Calm   6.4 km/h 94% 0 mm 0 W/m2
03:29 12.1 °C 11.2 °C 1004.3 hPa Calm   6.4 km/h 94% 0 mm 0 W/m2
03:34 12.1 °C 11.1 °C 1004.3 hPa Calm   6.4 km/h 94% 0 mm 0 W/m2
03:39 12 °C 11.1 °C 1004.3 hPa Calm     94% 0 mm 0 W/m2
03:44 11.9 °C 11.1 °C 1004.3 hPa Calm     94% 0 mm 0 W/m2
03:49 11.9 °C 10.9 °C 1004.3 hPa Calm     94% 0 mm 0 W/m2
03:54 11.8 °C 10.8 °C 1004.3 hPa Calm     93.6% 0 mm 0 W/m2
03:59 11.8 °C 10.9 °C 1004.3 hPa Calm     94% 0 mm 0 W/m2
04:00 11.8 °C 10.8 °C 1004.3 hPa Calm     94% 0 mm 0 W/m2
04:09 11.7 °C 10.7 °C 1004.3 hPa Calm     94% 0 mm 0 W/m2
04:14 11.6 °C 10.7 °C 1004.6 hPa WNW 0.2 km/h 3.2 km/h 94% 0 mm 0 W/m2
04:19 11.6 °C 10.6 °C 1004.6 hPa Calm   3.2 km/h 94% 0 mm 0 W/m2
04:24 11.5 °C 10.6 °C 1004.6 hPa Calm   3.2 km/h 94% 0 mm 0 W/m2
04:29 11.4 °C 10.5 °C 1004.6 hPa Calm   3.2 km/h 94% 0 mm 0 W/m2
04:34 11.3 °C 10.4 °C 1004.6 hPa Calm   3.2 km/h 94% 0 mm 0 W/m2
04:39 11.3 °C 10.3 °C 1004.6 hPa Calm     94% 0 mm 0 W/m2
04:44 11.2 °C 10.3 °C 1004.6 hPa Calm     94% 0 mm 0 W/m2
04:49 11.2 °C 10.2 °C 1005 hPa Calm     94% 0 mm 0 W/m2
04:54 11.2 °C 10.2 °C 1005 hPa Calm     94% 0 mm 0 W/m2
04:59 11.1 °C 10.2 °C 1005 hPa Calm     94% 0 mm 0 W/m2
05:04 11.1 °C 10.2 °C 1005 hPa Calm     94% 0 mm 0 W/m2
05:09 11.1 °C 10.1 °C 1005 hPa Calm     94% 0 mm 0 W/m2
05:14 11 °C 10.1 °C 1005.3 hPa Calm     94% 0 mm 0 W/m2
05:19 11 °C 10.1 °C 1005.3 hPa Calm     94% 0 mm 0 W/m2
05:24 10.9 °C 10.1 °C 1005.3 hPa Calm     94% 0 mm 0 W/m2
05:29 10.9 °C 10 °C 1005.3 hPa Calm     94% 0 mm 0 W/m2
05:34 10.8 °C 9.9 °C 1005.3 hPa Calm     94% 0.25 mm 0 W/m2
05:39 10.7 °C 9.8 °C 1005.3 hPa Calm     94% 0.25 mm 0 W/m2
05:44 10.7 °C 9.7 °C 1005.3 hPa Calm     94% 0.25 mm 0 W/m2
05:49 10.7 °C 9.8 °C 1005.3 hPa Calm     94.6% 0.25 mm 0 W/m2
05:54 10.7 °C 9.9 °C 1005.3 hPa Calm     95% 0.25 mm 0 W/m2
05:59 10.7 °C 9.9 °C 1005.3 hPa Calm     95% 0.25 mm 0 W/m2
06:04 10.6 °C 9.8 °C 1005.3 hPa Calm     94.5% 0.25 mm 0 W/m2
06:09 10.6 °C 9.6 °C 1005.3 hPa Calm     94% 0.25 mm 0 W/m2
06:14 10.5 °C 9.6 °C 1005.6 hPa Calm     94% 0.25 mm 0 W/m2
06:19 10.4 °C 9.6 °C 1005.6 hPa Calm     94.6% 0.25 mm 0 W/m2
06:24 10.4 °C 9.7 °C 1005.6 hPa Calm     95% 0.25 mm 0 W/m2
06:29 10.3 °C 9.6 °C 1005.6 hPa Calm     95% 0.25 mm 0 W/m2
06:34 10.3 °C 9.6 °C 1005.6 hPa Calm     95% 0.25 mm 0 W/m2
06:39 10.3 °C 9.6 °C 1005.6 hPa Calm     95% 0.25 mm 0 W/m2
06:44 10.3 °C 9.6 °C 1005.6 hPa Calm     95% 0.25 mm 0 W/m2
06:49 10.3 °C 9.6 °C 1005.6 hPa Calm     95% 0.25 mm 0 W/m2
06:54 10.3 °C 9.5 °C 1005.6 hPa WNW 0.8 km/h 6.4 km/h 95% 0.25 mm 0 W/m2
06:59 10.3 °C 9.5 °C 1006 hPa WNW 0.3 km/h 6.4 km/h 95% 0.25 mm 0 W/m2
07:04 10.2 °C 9.5 °C 1006 hPa WNW 0.6 km/h 6.4 km/h 95% 0.25 mm 0 W/m2
07:09 10.2 °C 9.4 °C 1006 hPa WNW 0.3 km/h 6.4 km/h 95% 0 mm 0 W/m2
07:14 10.2 °C 9.4 °C 1006 hPa Calm   6.4 km/h 95% 0 mm 5 W/m2
07:19 10.2 °C 9.4 °C 1006 hPa Calm   6.4 km/h 95% 0 mm 7 W/m2
07:24 10.1 °C 9.3 °C 1006 hPa WNW 0.3 km/h 6.4 km/h 95% 0 mm 9 W/m2
07:29 10.1 °C 9.3 °C 1006.3 hPa WNW 1 km/h 8 km/h 95% 0 mm 9 W/m2
07:34 10.1 °C 9.3 °C 1006.3 hPa WNW 1.4 km/h 8 km/h 95% 0 mm 11 W/m2
07:39 10.2 °C 9.4 °C 1006.3 hPa Calm   6.4 km/h 95% 0 mm 23 W/m2
07:44 10.2 °C 9.4 °C 1006.3 hPa Calm   6.4 km/h 95% 0 mm 21 W/m2
07:49 10.3 °C 9.5 °C 1006.3 hPa WNW 0.3 km/h 6.4 km/h 95% 0 mm 21 W/m2
07:54 10.3 °C 9.6 °C 1006.3 hPa Calm   6.4 km/h 95% 0 mm 23 W/m2
07:59 10.4 °C 9.6 °C 1006.3 hPa Calm   6.4 km/h 94.7% 0 mm 26 W/m2
08:00 10.4 °C 9.5 °C 1006.3 hPa Calm   6.4 km/h 94% 0 mm 21 W/m2
08:09 10.5 °C 9.6 °C 1006.3 hPa Calm     94% 0 mm 18 W/m2
08:14 10.6 °C 9.7 °C 1006.3 hPa Calm     94% 0 mm 19 W/m2
08:19 10.7 °C 9.7 °C 1006.3 hPa Calm     94% 0 mm 23 W/m2
08:24 10.7 °C 9.8 °C 1006.3 hPa WNW 0.2 km/h 3.2 km/h 94% 0 mm 25 W/m2
08:29 10.8 °C 9.9 °C 1006.3 hPa West 1.4 km/h 6.4 km/h 94% 0 mm 49 W/m2
08:34 11 °C 10.1 °C 1006.3 hPa WNW 0.2 km/h 6.4 km/h 94% 0 mm 49 W/m2
08:39 11.1 °C 10.2 °C 1006.3 hPa West 0.8 km/h 6.4 km/h 94% 0 mm 42 W/m2
08:44 11.3 °C 10.3 °C 1006.3 hPa Calm   6.4 km/h 94% 0 mm 123 W/m2
08:49 11.4 °C 10.5 °C 1006.3 hPa Calm   6.4 km/h 94% 0 mm 123 W/m2
08:54 11.7 °C 10.7 °C 1006.7 hPa Calm   6.4 km/h 93.5% 0 mm 288 W/m2
08:59 12 °C 10.8 °C 1006.7 hPa WNW 0.6 km/h 8 km/h 92.5% 0 mm 308 W/m2
09:04 12.5 °C 11.2 °C 1006.7 hPa WNW 0.2 km/h 8 km/h 91.6% 0 mm 323 W/m2
09:09 13.1 °C 11.5 °C 1006.7 hPa WNW 0.5 km/h 6.4 km/h 90.3% 0 mm 338 W/m2
09:14 13.6 °C 11.6 °C 1006.7 hPa WNW 0.2 km/h 6.4 km/h 87.7% 0 mm 355 W/m2
09:19 14.2 °C 12 °C 1006.7 hPa WNW 0.6 km/h 6.4 km/h 86.3% 0 mm 373 W/m2
09:24 14.8 °C 11.9 °C 1006.7 hPa WNW 3.5 km/h 17.7 km/h 82.9% 0 mm 387 W/m2
09:29 15.1 °C 11.6 °C 1006.7 hPa NW 2.3 km/h 17.7 km/h 79.3% 0 mm 404 W/m2
09:34 15.4 °C 11.8 °C 1006.7 hPa NW 1.4 km/h 17.7 km/h 78.8% 0 mm 420 W/m2
09:39 15.8 °C 11.8 °C 1006.7 hPa North 0.3 km/h 9.7 km/h 77.3% 0 mm 438 W/m2
09:44 16.1 °C 11.9 °C 1006.7 hPa NNW 1.6 km/h 9.7 km/h 76.3% 0 mm 450 W/m2
09:49 16.3 °C 11.8 °C 1006.7 hPa NNW 2.6 km/h 12.9 km/h 74.4% 0 mm 466 W/m2
09:54 16.5 °C 11.6 °C 1006.7 hPa NW 0.5 km/h 12.9 km/h 72.8% 0 mm 497 W/m2
09:59 16.7 °C 11.7 °C 1006.7 hPa WNW 1.3 km/h 12.9 km/h 72.3% 0 mm 499 W/m2
10:04 16.8 °C 11.8 °C 1006.7 hPa Calm   12.9 km/h 72.2% 0 mm 519 W/m2
10:09 17 °C 12.2 °C 1006.7 hPa Calm     73.3% 0 mm 598 W/m2
10:14 17.3 °C 12.3 °C 1006.7 hPa WNW 1.1 km/h 6.4 km/h 72.3% 0 mm 677 W/m2
10:19 17.5 °C 12 °C 1006.7 hPa WNW 1.4 km/h 8 km/h 70.2% 0 mm 677 W/m2
10:24 17.4 °C 11.4 °C 1006.7 hPa WNW 7.1 km/h 17.7 km/h 68% 0 mm 322 W/m2
10:29 16.9 °C 10.9 °C 1006.7 hPa WNW 6.9 km/h 20.9 km/h 67.4% 0 mm 717 W/m2
10:34 16.6 °C 10.9 °C 1006.7 hPa WNW 4.3 km/h 20.9 km/h 69.2% 0 mm 257 W/m2
10:39 16.3 °C 10.7 °C 1006.7 hPa NW 2.9 km/h 17.7 km/h 69.1% 0 mm 230 W/m2
10:44 16.3 °C 10.8 °C 1006.7 hPa WNW 0.6 km/h 17.7 km/h 70.1% 0 mm 698 W/m2
10:49 16.4 °C 11.1 °C 1006.7 hPa NW 1.9 km/h 17.7 km/h 70.4% 0 mm 698 W/m2
10:54 16.6 °C 10.7 °C 1006.7 hPa NNW 1.9 km/h 17.7 km/h 68.2% 0 mm 278 W/m2
10:59 16.6 °C 11.1 °C 1006.7 hPa NNW 1 km/h 17.7 km/h 69.9% 0 mm 278 W/m2
11:04 16.6 °C 11 °C 1006.7 hPa NNW 1.3 km/h 17.7 km/h 69.3% 0 mm 248 W/m2
11:09 16.8 °C 10.9 °C 1006.7 hPa WNW 3.2 km/h 17.7 km/h 68.5% 0 mm 248 W/m2
11:14 16.8 °C 10.9 °C 1006.7 hPa NW 0.8 km/h 17.7 km/h 68.3% 0 mm 181 W/m2
11:19 16.7 °C 10.2 °C 1006.3 hPa NW 9.7 km/h 25.7 km/h 65.7% 0 mm 130 W/m2
11:24 16.3 °C 10 °C 1006.3 hPa WNW 6.6 km/h 25.7 km/h 66.3% 0 mm 394 W/m2
11:29 16.3 °C 10.4 °C 1006.3 hPa WNW 5.6 km/h 25.7 km/h 68.1% 0 mm 394 W/m2
11:34 16.6 °C 10.6 °C 1006.3 hPa NW 1.8 km/h 25.7 km/h 67.6% 0 mm 571 W/m2
11:39 16.9 °C 10.9 °C 1006.3 hPa NNW 0.8 km/h 9.7 km/h 68.1% 0 mm 406 W/m2
11:44 17.2 °C 11 °C 1006.3 hPa NW 1.3 km/h 9.7 km/h 67% 0 mm 522 W/m2
11:49 17.6 °C 11.3 °C 1006 hPa WNW 2.7 km/h 11.3 km/h 66.7% 0 mm 496 W/m2
11:54 17.8 °C 10.9 °C 1006 hPa West 4.7 km/h 19.3 km/h 64.2% 0 mm 313 W/m2
11:59 17.7 °C 10.4 °C 1006 hPa WNW 6.3 km/h 24.1 km/h 62.3% 0 mm 313 W/m2
12:00 17.7 °C 10.6 °C 1006 hPa Calm   24.1 km/h 63% 0 mm 91 W/m2
12:09 17.8 °C 11.1 °C 1006 hPa NW 2.3 km/h 25.7 km/h 64.7% 0 mm 318 W/m2
12:14 18.1 °C 10.8 °C 1006 hPa WNW 4.7 km/h 25.7 km/h 62.4% 0 mm 824 W/m2
12:19 18.3 °C 10.6 °C 1006 hPa WNW 9 km/h 25.7 km/h 60.7% 0 mm 824 W/m2
12:24 18.3 °C 9.9 °C 1005.6 hPa West 6.4 km/h 25.7 km/h 58.3% 0 mm 237 W/m2
12:29 18.1 °C 10.2 °C 1006 hPa WNW 7.6 km/h 25.7 km/h 60.1% 0 mm 211 W/m2
12:34 18 °C 10.3 °C 1005.6 hPa WNW 4.2 km/h 25.7 km/h 60.9% 0 mm 188 W/m2
12:39 18.1 °C 10.3 °C 1005.6 hPa West 6.3 km/h 24.1 km/h 60.3% 0 mm 390 W/m2
12:44 18.3 °C 10.6 °C 1005.6 hPa WNW 7.6 km/h 24.1 km/h 60.7% 0 mm 323 W/m2
12:49 18.5 °C 10.6 °C 1005.6 hPa WNW 3.7 km/h 24.1 km/h 60% 0 mm 223 W/m2
12:54 18.5 °C 10.3 °C 1005.6 hPa NW 5 km/h 24.1 km/h 58.8% 0 mm 160 W/m2
12:59 18.2 °C 10.1 °C 1005.6 hPa NW 3.1 km/h 24.1 km/h 59% 0 mm 155 W/m2
13:04 17.9 °C 10.1 °C 1005.3 hPa NW 3.7 km/h 24.1 km/h 60.4% 0 mm 142 W/m2
13:09 17.6 °C 9.9 °C 1005.3 hPa WNW 2.6 km/h 11.3 km/h 60.9% 0 mm 181 W/m2
13:14 17.4 °C 9.7 °C 1005.3 hPa WNW 5.6 km/h 19.3 km/h 60.5% 0 mm 234 W/m2
13:19 17.3 °C 9.8 °C 1005.3 hPa West 5.5 km/h 19.3 km/h 61.2% 0 mm 167 W/m2
13:24 17.2 °C 9.9 °C 1005.3 hPa WNW 2.6 km/h 19.3 km/h 62.2% 0 mm 121 W/m2
13:29 17.2 °C 10 °C 1005.3 hPa WNW 0.5 km/h 19.3 km/h 62.7% 0 mm 100 W/m2
13:34 17.1 °C 9.8 °C 1005.3 hPa West 3.7 km/h 19.3 km/h 62% 0 mm 130 W/m2
13:39 16.9 °C 9.6 °C 1005.3 hPa West 3.4 km/h 12.9 km/h 61.9% 0 mm 162 W/m2
13:44 16.8 °C 9.8 °C 1005.3 hPa West 4.2 km/h 16.1 km/h 63.3% 0 mm 162 W/m2
13:49 16.8 °C 9.6 °C 1005 hPa WNW 4.8 km/h 16.1 km/h 62.4% 0 mm 114 W/m2
13:54 16.7 °C 9.8 °C 1005 hPa WNW 3.1 km/h 16.1 km/h 64% 0 mm 109 W/m2
13:59 16.6 °C 9.5 °C 1005 hPa WNW 3.2 km/h 16.1 km/h 63% 0 mm 111 W/m2
14:02 16.6 °C 9.7 °C 1005 hPa Calm   16.1 km/h 63.8% 0 mm 105 W/m2
15:00 17 °C 9.7 °C 1004.6 hPa WNW 4.8 km/h 20.9 km/h 62% 0 mm 126 W/m2
15:30 16.4 °C 9.1 °C 1005 hPa WNW 8 km/h 27.4 km/h 62% 0 mm 94 W/m2
16:04 16 °C 9.7 °C 1005.3 hPa WNW 0.6 km/h 27.4 km/h 66.1% 0 mm 94 W/m2
16:09 15.9 °C 9.8 °C 1005.3 hPa West 0.2 km/h 8 km/h 67% 0 mm 76 W/m2
16:14 15.9 °C 9.8 °C 1005.3 hPa West 1.1 km/h 8 km/h 67% 0 mm 63 W/m2
16:19 15.9 °C 9.8 °C 1005.3 hPa WSW 1.1 km/h 9.7 km/h 67.2% 0 mm 63 W/m2
16:24 15.8 °C 9.9 °C 1005.3 hPa WSW 0.8 km/h 9.7 km/h 67.9% 0 mm 69 W/m2
16:29 15.8 °C 10.1 °C 1005.3 hPa WSW 1.1 km/h 11.3 km/h 68.8% 0 mm 67 W/m2
16:34 15.7 °C 10.1 °C 1005.3 hPa WSW 0.3 km/h 11.3 km/h 69.4% 0 mm 44 W/m2
16:39 15.6 °C 10.3 °C 1005.3 hPa WSW 0.2 km/h 6.4 km/h 70.6% 0 mm 62 W/m2
16:44 15.6 °C 10.3 °C 1005.3 hPa Calm   6.4 km/h 71% 0 mm 58 W/m2
16:49 15.6 °C 10.4 °C 1005 hPa Calm   6.4 km/h 71.4% 0 mm 47 W/m2
16:54 15.5 °C 10.3 °C 1005 hPa WSW 0.2 km/h 6.4 km/h 71.3% 0 mm 28 W/m2
16:59 15.4 °C 10.3 °C 1005 hPa WSW 0.3 km/h 6.4 km/h 71.7% 0 mm 28 W/m2
17:04 15.3 °C 10.3 °C 1005 hPa WSW 0.2 km/h 6.4 km/h 72% 0 mm 28 W/m2
17:09 15.3 °C 10.3 °C 1005 hPa WSW 0.3 km/h 6.4 km/h 72% 0 mm 21 W/m2
17:14 15.2 °C 10.1 °C 1005 hPa WSW 0.3 km/h 8 km/h 71.4% 0 mm 18 W/m2
17:19 15.2 °C 10.1 °C 1005 hPa Calm   8 km/h 71.5% 0 mm 16 W/m2
17:24 15.2 °C 10.2 °C 1005.3 hPa Calm   8 km/h 72% 0 mm 16 W/m2
17:29 15.2 °C 10.2 °C 1005.3 hPa Calm   8 km/h 72.1% 0 mm 14 W/m2
17:34 15.2 °C 10.4 °C 1005.3 hPa Calm   8 km/h 73.1% 0 mm 12 W/m2
17:39 15.1 °C 10.5 °C 1005.3 hPa Calm     74% 0 mm 11 W/m2
17:44 15.1 °C 10.4 °C 1005.3 hPa Calm     74% 0 mm 9 W/m2
17:49 15 °C 10.5 °C 1005.3 hPa Calm     74.4% 0 mm 7 W/m2
17:54 14.9 °C 10.3 °C 1005.3 hPa Calm     74% 0 mm 5 W/m2
17:59 14.8 °C 10.4 °C 1005.3 hPa Calm     74.9% 0 mm 0 W/m2
18:04 14.7 °C 10.3 °C 1005.3 hPa Calm     75% 0 mm 0 W/m2
18:09 14.6 °C 10.2 °C 1005.6 hPa Calm     75% 0 mm 0 W/m2
18:14 14.5 °C 10.2 °C 1005.6 hPa Calm     75.6% 0 mm 0 W/m2
18:19 14.4 °C 10.4 °C 1005.6 hPa Calm     76.9% 0 mm 0 W/m2
18:24 14.3 °C 10.3 °C 1005.6 hPa Calm     77% 0 mm 0 W/m2
18:29 14.2 °C 10.4 °C 1005.6 hPa Calm     78.1% 0 mm 0 W/m2
18:34 14.1 °C 10.6 °C 1006.3 hPa NW 3.5 km/h 27.4 km/h 79.6% 0 mm 0 W/m2
18:39 13.8 °C 10.4 °C 1006.3 hPa NW 8.5 km/h 27.4 km/h 80% 0.25 mm 0 W/m2
18:44 13.3 °C 10.1 °C 1006.7 hPa NW 9.2 km/h 27.4 km/h 80.8% 0.51 mm 0 W/m2
18:49 12.9 °C 9.9 °C 1006.7 hPa NW 6.4 km/h 27.4 km/h 82.2% 0.51 mm 0 W/m2
18:54 12.6 °C 9.8 °C 1006.7 hPa WNW 6.1 km/h 27.4 km/h 83.6% 0.51 mm 0 W/m2
18:59 12.3 °C 9.9 °C 1006.7 hPa West 3.9 km/h 27.4 km/h 85% 0.51 mm 0 W/m2
19:04 12.2 °C 9.9 °C 1006.7 hPa WNW 6.8 km/h 27.4 km/h 86% 0.51 mm 0 W/m2
19:09 12 °C 9.7 °C 1006.7 hPa NW 4 km/h 20.9 km/h 86% 0.76 mm 0 W/m2
19:14 11.9 °C 9.7 °C 1006.7 hPa WNW 3.9 km/h 20.9 km/h 86% 0.76 mm 0 W/m2
19:19 11.8 °C 9.6 °C 1006.7 hPa WNW 8.4 km/h 22.5 km/h 86% 0.76 mm 0 W/m2
19:24 11.7 °C 9.2 °C 1006.7 hPa West 3.9 km/h 22.5 km/h 85% 0.76 mm 0 W/m2
19:29 11.6 °C 9.2 °C 1006.7 hPa West 4 km/h 22.5 km/h 85% 0.76 mm 0 W/m2
19:34 11.6 °C 9.1 °C 1006.7 hPa WNW 4 km/h 22.5 km/h 84.7% 0.76 mm 0 W/m2
19:39 11.5 °C 8.9 °C 1006.7 hPa West 2.4 km/h 19.3 km/h 84% 0.76 mm 0 W/m2
19:44 11.5 °C 8.9 °C 1007 hPa West 1.8 km/h 19.3 km/h 84.4% 0.76 mm 0 W/m2
19:49 11.5 °C 8.9 °C 1007 hPa Calm   19.3 km/h 84.3% 0.76 mm 0 W/m2
19:54 11.5 °C 9.1 °C 1007 hPa West 0.8 km/h 19.3 km/h 85% 0.76 mm 0 W/m2
19:59 11.6 °C 9.1 °C 1007 hPa West 0.5 km/h 19.3 km/h 84.8% 0.76 mm 0 W/m2
20:04 11.6 °C 8.9 °C 1007 hPa Calm     84% 0.76 mm 0 W/m2
20:09 11.6 °C 8.9 °C 1007 hPa WNW 2.1 km/h 9.7 km/h 84% 0.76 mm 0 W/m2
20:14 11.6 °C 9 °C 1007 hPa WNW 0.3 km/h 9.7 km/h 84% 0.76 mm 0 W/m2
20:19 11.6 °C 9 °C 1007 hPa West 1.6 km/h 9.7 km/h 84% 0.76 mm 0 W/m2
20:24 11.7 °C 9 °C 1007 hPa NNW 1.8 km/h 12.9 km/h 83.8% 0.76 mm 0 W/m2
20:29 11.7 °C 8.9 °C 1007.3 hPa NW 0.8 km/h 12.9 km/h 83% 0.76 mm 0 W/m2
20:34 11.7 °C 8.9 °C 1007.3 hPa WNW 0.3 km/h 12.9 km/h 83% 0.76 mm 0 W/m2
20:39 11.7 °C 8.7 °C 1007.3 hPa WNW 0.3 km/h 6.4 km/h 82.1% 0 mm 0 W/m2
20:44 11.7 °C 8.7 °C 1007.3 hPa WNW 1.3 km/h 9.7 km/h 82.2% 0 mm 0 W/m2
20:49 11.7 °C 8.7 °C 1007.3 hPa WNW 1.4 km/h 9.7 km/h 82% 0 mm 0 W/m2
20:54 11.7 °C 8.7 °C 1007.3 hPa Calm   9.7 km/h 82% 0 mm 0 W/m2
20:59 11.6 °C 8.6 °C 1007.7 hPa Calm   9.7 km/h 81.5% 0 mm 0 W/m2
21:04 11.6 °C 8.5 °C 1007.7 hPa WNW 0.3 km/h 9.7 km/h 81.2% 0 mm 0 W/m2
21:09 11.6 °C 8.4 °C 1007.7 hPa Calm   4.8 km/h 81.1% 0 mm 0 W/m2
21:14 11.6 °C 8.4 °C 1007.7 hPa WNW 1.1 km/h 8 km/h 81% 0 mm 0 W/m2
21:19 11.5 °C 8.3 °C 1007.7 hPa Calm   8 km/h 81% 0 mm 0 W/m2
21:24 11.5 °C 8.5 °C 1007.7 hPa WNW 0.5 km/h 8 km/h 81.9% 0 mm 0 W/m2
21:29 11.4 °C 8.5 °C 1007.7 hPa Calm   8 km/h 82.1% 0 mm 0 W/m2
21:34 11.4 °C 8.5 °C 1007.7 hPa WSW 1 km/h 11.3 km/h 82.4% 0 mm 0 W/m2
21:35 11.4 °C 8.4 °C 1007.7 hPa SW 0.6 km/h 11.3 km/h 82% 0 mm 0 W/m2
22:00 11.3 °C 8.3 °C 1007.7 hPa West 1.6 km/h 12.9 km/h 82% 0 mm 0 W/m2
22:30 11.1 °C 8 °C 1007.7 hPa Calm   11.3 km/h 81% 0 mm 0 W/m2
23:00 10.9 °C 7.8 °C 1007.3 hPa Calm   9.7 km/h 81% 0 mm 0 W/m2
23:30 10.5 °C 7.6 °C 1007.3 hPa West 1.6 km/h 14.5 km/h 82% 0 mm 0 W/m2
Hartford County Weather
Compliments of Weather Underground - 4 mb